sensor_id;sensor_type;location;lat;lon;timestamp;P1;durP1;ratioP1;P2;durP2;ratioP2
22490;SDS011;11412;50.802;4.350;2022-11-23T00:03:51;13.70;;;2.20;;
22490;SDS011;11412;50.802;4.350;2022-11-23T00:06:18;13.20;;;2.00;;
22490;SDS011;11412;50.802;4.350;2022-11-23T00:08:45;16.50;;;2.70;;
22490;SDS011;11412;50.802;4.350;2022-11-23T00:11:11;12.35;;;2.00;;
22490;SDS011;11412;50.802;4.350;2022-11-23T00:13:37;15.73;;;1.95;;
22490;SDS011;11412;50.802;4.350;2022-11-23T00:16:05;9.60;;;2.20;;
22490;SDS011;11412;50.802;4.350;2022-11-23T00:18:32;10.75;;;2.17;;
22490;SDS011;11412;50.802;4.350;2022-11-23T00:20:58;11.52;;;2.33;;
22490;SDS011;11412;50.802;4.350;2022-11-23T00:23:23;7.22;;;1.95;;
22490;SDS011;11412;50.802;4.350;2022-11-23T00:25:49;12.13;;;2.40;;
22490;SDS011;11412;50.802;4.350;2022-11-23T00:28:14;7.13;;;1.52;;
22490;SDS011;11412;50.802;4.350;2022-11-23T00:30:40;10.27;;;1.77;;
22490;SDS011;11412;50.802;4.350;2022-11-23T00:33:06;10.23;;;2.63;;
22490;SDS011;11412;50.802;4.350;2022-11-23T00:35:31;9.38;;;2.25;;
22490;SDS011;11412;50.802;4.350;2022-11-23T00:37:57;9.35;;;2.17;;
22490;SDS011;11412;50.802;4.350;2022-11-23T00:40:22;9.48;;;1.65;;
22490;SDS011;11412;50.802;4.350;2022-11-23T00:42:48;14.80;;;2.63;;
22490;SDS011;11412;50.802;4.350;2022-11-23T00:45:14;9.00;;;2.00;;
22490;SDS011;11412;50.802;4.350;2022-11-23T00:47:39;11.77;;;2.42;;
22490;SDS011;11412;50.802;4.350;2022-11-23T00:50:05;8.88;;;1.85;;
22490;SDS011;11412;50.802;4.350;2022-11-23T00:52:31;13.05;;;2.05;;
22490;SDS011;11412;50.802;4.350;2022-11-23T00:54:56;13.48;;;2.03;;
22490;SDS011;11412;50.802;4.350;2022-11-23T00:57:22;10.75;;;1.60;;
22490;SDS011;11412;50.802;4.350;2022-11-23T00:59:47;12.52;;;2.33;;
22490;SDS011;11412;50.802;4.350;2022-11-23T01:02:13;12.88;;;1.92;;
22490;SDS011;11412;50.802;4.350;2022-11-23T01:04:39;13.23;;;2.78;;
22490;SDS011;11412;50.802;4.350;2022-11-23T01:07:04;6.50;;;1.70;;
22490;SDS011;11412;50.802;4.350;2022-11-23T01:09:30;9.48;;;2.10;;
22490;SDS011;11412;50.802;4.350;2022-11-23T01:11:56;12.05;;;2.13;;
22490;SDS011;11412;50.802;4.350;2022-11-23T01:14:21;7.47;;;1.98;;
22490;SDS011;11412;50.802;4.350;2022-11-23T01:16:48;13.77;;;2.13;;
22490;SDS011;11412;50.802;4.350;2022-11-23T01:19:15;9.80;;;2.15;;
22490;SDS011;11412;50.802;4.350;2022-11-23T01:21:42;13.20;;;2.25;;
22490;SDS011;11412;50.802;4.350;2022-11-23T01:24:12;6.95;;;2.30;;
22490;SDS011;11412;50.802;4.350;2022-11-23T01:26:41;12.63;;;2.58;;
22490;SDS011;11412;50.802;4.350;2022-11-23T01:29:11;10.52;;;2.05;;
22490;SDS011;11412;50.802;4.350;2022-11-23T01:31:37;9.15;;;2.40;;
22490;SDS011;11412;50.802;4.350;2022-11-23T01:34:04;10.15;;;1.92;;
22490;SDS011;11412;50.802;4.350;2022-11-23T01:36:31;11.43;;;1.77;;
22490;SDS011;11412;50.802;4.350;2022-11-23T01:38:58;12.15;;;2.45;;
22490;SDS011;11412;50.802;4.350;2022-11-23T01:41:29;8.55;;;1.88;;
22490;SDS011;11412;50.802;4.350;2022-11-23T01:44:00;9.75;;;2.38;;
22490;SDS011;11412;50.802;4.350;2022-11-23T01:46:26;19.23;;;2.53;;
22490;SDS011;11412;50.802;4.350;2022-11-23T01:51:29;13.63;;;2.40;;
22490;SDS011;11412;50.802;4.350;2022-11-23T01:54:01;7.47;;;2.13;;
22490;SDS011;11412;50.802;4.350;2022-11-23T01:56:41;12.90;;;2.47;;
22490;SDS011;11412;50.802;4.350;2022-11-23T01:59:11;11.27;;;2.17;;
22490;SDS011;11412;50.802;4.350;2022-11-23T02:01:41;13.45;;;2.58;;
22490;SDS011;11412;50.802;4.350;2022-11-23T02:04:07;9.98;;;2.38;;
22490;SDS011;11412;50.802;4.350;2022-11-23T02:06:37;13.63;;;2.00;;
22490;SDS011;11412;50.802;4.350;2022-11-23T02:09:04;16.73;;;2.80;;
22490;SDS011;11412;50.802;4.350;2022-11-23T02:11:31;12.27;;;2.60;;
22490;SDS011;11412;50.802;4.350;2022-11-23T02:13:57;15.82;;;2.53;;
22490;SDS011;11412;50.802;4.350;2022-11-23T02:16:24;13.05;;;2.85;;
22490;SDS011;11412;50.802;4.350;2022-11-23T02:18:50;12.50;;;2.42;;
22490;SDS011;11412;50.802;4.350;2022-11-23T02:21:16;12.93;;;2.70;;
22490;SDS011;11412;50.802;4.350;2022-11-23T02:24:04;12.63;;;3.08;;
22490;SDS011;11412;50.802;4.350;2022-11-23T02:26:38;13.23;;;3.28;;
22490;SDS011;11412;50.802;4.350;2022-11-23T02:29:06;9.10;;;3.20;;
22490;SDS011;11412;50.802;4.350;2022-11-23T02:31:36;13.35;;;3.17;;
22490;SDS011;11412;50.802;4.350;2022-11-23T02:34:01;12.13;;;2.67;;
22490;SDS011;11412;50.802;4.350;2022-11-23T02:38:59;14.35;;;3.05;;
22490;SDS011;11412;50.802;4.350;2022-11-23T02:41:37;15.63;;;3.45;;
22490;SDS011;11412;50.802;4.350;2022-11-23T02:44:30;14.93;;;3.00;;
22490;SDS011;11412;50.802;4.350;2022-11-23T02:47:16;16.80;;;2.88;;
22490;SDS011;11412;50.802;4.350;2022-11-23T02:49:44;11.90;;;3.20;;
22490;SDS011;11412;50.802;4.350;2022-11-23T02:52:11;13.73;;;3.00;;
22490;SDS011;11412;50.802;4.350;2022-11-23T02:54:37;13.23;;;2.70;;
22490;SDS011;11412;50.802;4.350;2022-11-23T02:57:03;9.45;;;2.35;;
22490;SDS011;11412;50.802;4.350;2022-11-23T02:59:29;11.65;;;2.28;;
22490;SDS011;11412;50.802;4.350;2022-11-23T03:01:57;16.88;;;2.25;;
22490;SDS011;11412;50.802;4.350;2022-11-23T03:04:23;13.27;;;2.85;;
22490;SDS011;11412;50.802;4.350;2022-11-23T03:06:48;18.05;;;2.92;;
22490;SDS011;11412;50.802;4.350;2022-11-23T03:09:14;12.93;;;2.63;;
22490;SDS011;11412;50.802;4.350;2022-11-23T03:11:40;13.57;;;2.78;;
22490;SDS011;11412;50.802;4.350;2022-11-23T03:14:05;25.17;;;3.33;;
22490;SDS011;11412;50.802;4.350;2022-11-23T03:16:31;11.95;;;2.45;;
22490;SDS011;11412;50.802;4.350;2022-11-23T03:18:58;13.18;;;2.25;;
22490;SDS011;11412;50.802;4.350;2022-11-23T03:21:24;12.25;;;2.47;;
22490;SDS011;11412;50.802;4.350;2022-11-23T03:23:49;11.32;;;2.15;;
22490;SDS011;11412;50.802;4.350;2022-11-23T03:26:15;16.75;;;2.40;;
22490;SDS011;11412;50.802;4.350;2022-11-23T03:28:40;9.07;;;1.92;;
22490;SDS011;11412;50.802;4.350;2022-11-23T03:31:06;11.68;;;2.10;;
22490;SDS011;11412;50.802;4.350;2022-11-23T03:33:32;13.05;;;2.50;;
22490;SDS011;11412;50.802;4.350;2022-11-23T03:35:58;7.60;;;2.30;;
22490;SDS011;11412;50.802;4.350;2022-11-23T03:38:23;9.95;;;1.92;;
22490;SDS011;11412;50.802;4.350;2022-11-23T03:40:49;12.38;;;3.00;;
22490;SDS011;11412;50.802;4.350;2022-11-23T03:43:15;11.63;;;2.30;;
22490;SDS011;11412;50.802;4.350;2022-11-23T03:45:41;10.93;;;2.20;;
22490;SDS011;11412;50.802;4.350;2022-11-23T03:48:07;19.42;;;2.63;;
22490;SDS011;11412;50.802;4.350;2022-11-23T03:50:33;10.73;;;2.00;;
22490;SDS011;11412;50.802;4.350;2022-11-23T03:52:58;13.95;;;2.80;;
22490;SDS011;11412;50.802;4.350;2022-11-23T03:55:24;10.65;;;2.45;;
22490;SDS011;11412;50.802;4.350;2022-11-23T03:57:51;10.77;;;2.97;;
22490;SDS011;11412;50.802;4.350;2022-11-23T04:00:18;10.10;;;2.05;;
22490;SDS011;11412;50.802;4.350;2022-11-23T04:02:44;21.27;;;3.00;;
22490;SDS011;11412;50.802;4.350;2022-11-23T04:05:10;16.45;;;3.53;;
22490;SDS011;11412;50.802;4.350;2022-11-23T04:07:36;19.17;;;2.75;;
22490;SDS011;11412;50.802;4.350;2022-11-23T04:10:02;9.05;;;2.50;;
22490;SDS011;11412;50.802;4.350;2022-11-23T04:12:28;12.60;;;2.28;;
22490;SDS011;11412;50.802;4.350;2022-11-23T04:14:53;17.92;;;3.50;;
22490;SDS011;11412;50.802;4.350;2022-11-23T04:17:19;11.88;;;2.03;;
22490;SDS011;11412;50.802;4.350;2022-11-23T04:19:44;10.18;;;2.55;;
22490;SDS011;11412;50.802;4.350;2022-11-23T04:22:10;12.82;;;2.47;;
22490;SDS011;11412;50.802;4.350;2022-11-23T04:24:36;15.48;;;2.63;;
22490;SDS011;11412;50.802;4.350;2022-11-23T04:27:01;11.45;;;2.10;;
22490;SDS011;11412;50.802;4.350;2022-11-23T04:29:27;17.30;;;2.78;;
22490;SDS011;11412;50.802;4.350;2022-11-23T04:31:52;11.02;;;3.08;;
22490;SDS011;11412;50.802;4.350;2022-11-23T04:34:18;8.55;;;2.17;;
22490;SDS011;11412;50.802;4.350;2022-11-23T04:36:44;14.90;;;2.70;;
22490;SDS011;11412;50.802;4.350;2022-11-23T04:39:10;10.65;;;2.60;;
22490;SDS011;11412;50.802;4.350;2022-11-23T04:41:36;12.63;;;2.63;;
22490;SDS011;11412;50.802;4.350;2022-11-23T04:44:03;15.30;;;2.55;;
22490;SDS011;11412;50.802;4.350;2022-11-23T04:46:29;11.60;;;2.58;;
22490;SDS011;11412;50.802;4.350;2022-11-23T04:48:54;9.75;;;1.75;;
22490;SDS011;11412;50.802;4.350;2022-11-23T04:51:20;15.02;;;2.47;;
22490;SDS011;11412;50.802;4.350;2022-11-23T04:53:46;13.57;;;2.70;;
22490;SDS011;11412;50.802;4.350;2022-11-23T04:56:12;17.90;;;3.17;;
22490;SDS011;11412;50.802;4.350;2022-11-23T04:58:37;12.07;;;3.20;;
22490;SDS011;11412;50.802;4.350;2022-11-23T05:01:03;19.80;;;3.38;;
22490;SDS011;11412;50.802;4.350;2022-11-23T05:03:29;14.80;;;2.75;;
22490;SDS011;11412;50.802;4.350;2022-11-23T05:05:59;12.10;;;2.50;;
22490;SDS011;11412;50.802;4.350;2022-11-23T05:08:25;20.25;;;2.83;;
22490;SDS011;11412;50.802;4.350;2022-11-23T05:10:51;13.02;;;2.53;;
22490;SDS011;11412;50.802;4.350;2022-11-23T05:13:16;12.88;;;2.22;;
22490;SDS011;11412;50.802;4.350;2022-11-23T05:15:42;9.05;;;2.75;;
22490;SDS011;11412;50.802;4.350;2022-11-23T05:18:08;10.05;;;2.38;;
22490;SDS011;11412;50.802;4.350;2022-11-23T05:20:34;15.20;;;3.33;;
22490;SDS011;11412;50.802;4.350;2022-11-23T05:23:00;10.65;;;2.03;;
22490;SDS011;11412;50.802;4.350;2022-11-23T05:25:26;14.45;;;2.53;;
22490;SDS011;11412;50.802;4.350;2022-11-23T05:27:51;11.15;;;2.08;;
22490;SDS011;11412;50.802;4.350;2022-11-23T05:30:18;13.60;;;2.50;;
22490;SDS011;11412;50.802;4.350;2022-11-23T05:32:43;16.20;;;2.72;;
22490;SDS011;11412;50.802;4.350;2022-11-23T05:35:09;8.60;;;1.90;;
22490;SDS011;11412;50.802;4.350;2022-11-23T05:37:36;18.33;;;2.53;;
22490;SDS011;11412;50.802;4.350;2022-11-23T05:40:01;10.75;;;2.08;;
22490;SDS011;11412;50.802;4.350;2022-11-23T05:42:28;12.38;;;1.73;;
22490;SDS011;11412;50.802;4.350;2022-11-23T05:44:53;10.00;;;1.90;;
22490;SDS011;11412;50.802;4.350;2022-11-23T05:47:19;11.70;;;2.00;;
22490;SDS011;11412;50.802;4.350;2022-11-23T05:49:45;12.68;;;2.47;;
22490;SDS011;11412;50.802;4.350;2022-11-23T05:52:10;15.05;;;2.38;;
22490;SDS011;11412;50.802;4.350;2022-11-23T05:54:36;10.15;;;2.25;;
22490;SDS011;11412;50.802;4.350;2022-11-23T05:57:01;12.25;;;2.30;;
22490;SDS011;11412;50.802;4.350;2022-11-23T05:59:27;8.68;;;2.80;;
22490;SDS011;11412;50.802;4.350;2022-11-23T06:01:53;12.75;;;2.08;;
22490;SDS011;11412;50.802;4.350;2022-11-23T06:04:18;12.63;;;2.90;;
22490;SDS011;11412;50.802;4.350;2022-11-23T06:06:44;10.48;;;2.50;;
22490;SDS011;11412;50.802;4.350;2022-11-23T06:09:10;12.23;;;2.03;;
22490;SDS011;11412;50.802;4.350;2022-11-23T06:11:35;6.97;;;2.22;;
22490;SDS011;11412;50.802;4.350;2022-11-23T06:14:01;15.10;;;2.40;;
22490;SDS011;11412;50.802;4.350;2022-11-23T06:16:27;11.25;;;2.30;;
22490;SDS011;11412;50.802;4.350;2022-11-23T06:18:53;13.93;;;2.25;;
22490;SDS011;11412;50.802;4.350;2022-11-23T06:21:18;14.68;;;3.08;;
22490;SDS011;11412;50.802;4.350;2022-11-23T06:23:47;12.57;;;2.30;;
22490;SDS011;11412;50.802;4.350;2022-11-23T06:26:12;9.27;;;2.15;;
22490;SDS011;11412;50.802;4.350;2022-11-23T06:28:39;14.75;;;2.35;;
22490;SDS011;11412;50.802;4.350;2022-11-23T06:31:05;14.20;;;2.80;;
22490;SDS011;11412;50.802;4.350;2022-11-23T06:33:31;14.80;;;2.83;;
22490;SDS011;11412;50.802;4.350;2022-11-23T06:35:58;12.88;;;2.47;;
22490;SDS011;11412;50.802;4.350;2022-11-23T06:38:25;16.33;;;2.97;;
22490;SDS011;11412;50.802;4.350;2022-11-23T06:40:52;11.98;;;2.88;;
22490;SDS011;11412;50.802;4.350;2022-11-23T06:43:21;15.45;;;2.85;;
22490;SDS011;11412;50.802;4.350;2022-11-23T06:45:46;11.50;;;2.00;;
22490;SDS011;11412;50.802;4.350;2022-11-23T06:48:12;15.13;;;2.88;;
22490;SDS011;11412;50.802;4.350;2022-11-23T06:50:38;11.32;;;2.20;;
22490;SDS011;11412;50.802;4.350;2022-11-23T06:53:03;11.23;;;2.20;;
22490;SDS011;11412;50.802;4.350;2022-11-23T06:55:29;11.85;;;2.55;;
22490;SDS011;11412;50.802;4.350;2022-11-23T06:57:55;10.13;;;2.20;;
22490;SDS011;11412;50.802;4.350;2022-11-23T07:00:22;8.98;;;2.30;;
22490;SDS011;11412;50.802;4.350;2022-11-23T07:02:51;14.98;;;2.30;;
22490;SDS011;11412;50.802;4.350;2022-11-23T07:05:17;13.43;;;2.58;;
22490;SDS011;11412;50.802;4.350;2022-11-23T07:07:43;17.83;;;3.10;;
22490;SDS011;11412;50.802;4.350;2022-11-23T07:10:09;14.93;;;2.25;;
22490;SDS011;11412;50.802;4.350;2022-11-23T07:12:35;14.20;;;2.55;;
22490;SDS011;11412;50.802;4.350;2022-11-23T07:15:00;13.43;;;2.70;;
22490;SDS011;11412;50.802;4.350;2022-11-23T07:17:26;15.32;;;2.72;;
22490;SDS011;11412;50.802;4.350;2022-11-23T07:19:52;17.15;;;3.35;;
22490;SDS011;11412;50.802;4.350;2022-11-23T07:22:18;13.85;;;3.08;;
22490;SDS011;11412;50.802;4.350;2022-11-23T07:24:43;18.00;;;3.20;;
22490;SDS011;11412;50.802;4.350;2022-11-23T07:27:09;14.98;;;3.05;;
22490;SDS011;11412;50.802;4.350;2022-11-23T07:29:35;11.55;;;2.80;;
22490;SDS011;11412;50.802;4.350;2022-11-23T07:32:00;13.18;;;3.60;;
22490;SDS011;11412;50.802;4.350;2022-11-23T07:34:26;13.43;;;2.70;;
22490;SDS011;11412;50.802;4.350;2022-11-23T07:36:52;13.63;;;3.30;;
22490;SDS011;11412;50.802;4.350;2022-11-23T07:39:19;15.27;;;3.25;;
22490;SDS011;11412;50.802;4.350;2022-11-23T07:41:47;9.35;;;2.60;;
22490;SDS011;11412;50.802;4.350;2022-11-23T07:44:12;11.68;;;2.83;;
22490;SDS011;11412;50.802;4.350;2022-11-23T07:46:38;10.93;;;2.53;;
22490;SDS011;11412;50.802;4.350;2022-11-23T07:49:04;13.30;;;2.80;;
22490;SDS011;11412;50.802;4.350;2022-11-23T07:51:29;13.40;;;2.83;;
22490;SDS011;11412;50.802;4.350;2022-11-23T07:53:55;10.02;;;2.08;;
22490;SDS011;11412;50.802;4.350;2022-11-23T07:56:21;11.23;;;2.70;;
22490;SDS011;11412;50.802;4.350;2022-11-23T07:58:48;10.82;;;2.88;;
22490;SDS011;11412;50.802;4.350;2022-11-23T08:01:14;14.63;;;3.03;;
22490;SDS011;11412;50.802;4.350;2022-11-23T08:03:42;13.45;;;2.40;;
22490;SDS011;11412;50.802;4.350;2022-11-23T08:06:11;8.93;;;2.13;;
22490;SDS011;11412;50.802;4.350;2022-11-23T08:08:38;11.50;;;3.25;;
22490;SDS011;11412;50.802;4.350;2022-11-23T08:11:05;16.98;;;4.15;;
22490;SDS011;11412;50.802;4.350;2022-11-23T08:13:31;18.27;;;3.03;;
22490;SDS011;11412;50.802;4.350;2022-11-23T08:15:58;14.82;;;2.45;;
22490;SDS011;11412;50.802;4.350;2022-11-23T08:18:25;12.93;;;2.45;;
22490;SDS011;11412;50.802;4.350;2022-11-23T08:20:51;12.68;;;2.20;;
22490;SDS011;11412;50.802;4.350;2022-11-23T08:23:17;12.48;;;2.58;;
22490;SDS011;11412;50.802;4.350;2022-11-23T08:25:43;14.45;;;2.72;;
22490;SDS011;11412;50.802;4.350;2022-11-23T08:28:09;9.65;;;2.33;;
22490;SDS011;11412;50.802;4.350;2022-11-23T08:30:36;9.30;;;2.35;;
22490;SDS011;11412;50.802;4.350;2022-11-23T08:33:02;10.43;;;2.47;;
22490;SDS011;11412;50.802;4.350;2022-11-23T08:35:29;10.20;;;2.15;;
22490;SDS011;11412;50.802;4.350;2022-11-23T08:37:56;10.55;;;2.60;;
22490;SDS011;11412;50.802;4.350;2022-11-23T08:40:22;14.02;;;2.60;;
22490;SDS011;11412;50.802;4.350;2022-11-23T08:42:47;8.50;;;2.00;;
22490;SDS011;11412;50.802;4.350;2022-11-23T08:45:13;10.90;;;2.35;;
22490;SDS011;11412;50.802;4.350;2022-11-23T08:47:39;12.98;;;2.60;;
22490;SDS011;11412;50.802;4.350;2022-11-23T08:50:05;6.78;;;1.85;;
22490;SDS011;11412;50.802;4.350;2022-11-23T08:52:30;12.30;;;2.40;;
22490;SDS011;11412;50.802;4.350;2022-11-23T08:54:56;6.88;;;1.70;;
22490;SDS011;11412;50.802;4.350;2022-11-23T08:57:22;7.07;;;1.90;;
22490;SDS011;11412;50.802;4.350;2022-11-23T08:59:47;8.60;;;2.30;;
22490;SDS011;11412;50.802;4.350;2022-11-23T09:02:13;7.60;;;2.03;;
22490;SDS011;11412;50.802;4.350;2022-11-23T09:04:39;8.43;;;2.03;;
22490;SDS011;11412;50.802;4.350;2022-11-23T09:07:05;7.68;;;2.42;;
22490;SDS011;11412;50.802;4.350;2022-11-23T09:09:31;9.23;;;2.42;;
22490;SDS011;11412;50.802;4.350;2022-11-23T09:11:57;9.82;;;3.08;;
22490;SDS011;11412;50.802;4.350;2022-11-23T09:14:23;7.80;;;2.60;;
22490;SDS011;11412;50.802;4.350;2022-11-23T09:16:49;11.68;;;2.92;;
22490;SDS011;11412;50.802;4.350;2022-11-23T09:19:15;10.95;;;2.53;;
22490;SDS011;11412;50.802;4.350;2022-11-23T09:21:41;9.30;;;2.58;;
22490;SDS011;11412;50.802;4.350;2022-11-23T09:24:10;7.88;;;2.08;;
22490;SDS011;11412;50.802;4.350;2022-11-23T09:26:36;5.40;;;1.67;;
22490;SDS011;11412;50.802;4.350;2022-11-23T09:29:03;4.72;;;2.00;;
22490;SDS011;11412;50.802;4.350;2022-11-23T09:31:30;9.48;;;1.90;;
22490;SDS011;11412;50.802;4.350;2022-11-23T09:33:55;6.82;;;2.47;;
22490;SDS011;11412;50.802;4.350;2022-11-23T09:36:21;6.90;;;2.13;;
22490;SDS011;11412;50.802;4.350;2022-11-23T09:38:47;6.53;;;1.60;;
22490;SDS011;11412;50.802;4.350;2022-11-23T09:44:23;8.55;;;1.98;;
22490;SDS011;11412;50.802;4.350;2022-11-23T09:52:32;6.45;;;1.73;;
22490;SDS011;11412;50.802;4.350;2022-11-23T09:55:51;6.82;;;2.00;;
22490;SDS011;11412;50.802;4.350;2022-11-23T09:57:59;9.77;;;1.80;;
22490;SDS011;11412;50.802;4.350;2022-11-23T10:00:28;10.43;;;2.42;;
22490;SDS011;11412;50.802;4.350;2022-11-23T10:03:09;5.38;;;1.83;;
22490;SDS011;11412;50.802;4.350;2022-11-23T10:14:16;4.97;;;1.70;;
22490;SDS011;11412;50.802;4.350;2022-11-23T10:16:51;6.95;;;1.60;;
22490;SDS011;11412;50.802;4.350;2022-11-23T10:22:35;5.32;;;1.88;;
22490;SDS011;11412;50.802;4.350;2022-11-23T10:27:33;7.75;;;1.48;;
22490;SDS011;11412;50.802;4.350;2022-11-23T10:29:59;4.05;;;1.40;;
22490;SDS011;11412;50.802;4.350;2022-11-23T10:35:10;4.13;;;1.45;;
22490;SDS011;11412;50.802;4.350;2022-11-23T10:37:40;2.97;;;1.38;;
22490;SDS011;11412;50.802;4.350;2022-11-23T10:42:44;6.75;;;1.60;;
22490;SDS011;11412;50.802;4.350;2022-11-23T10:45:21;5.72;;;1.75;;
22490;SDS011;11412;50.802;4.350;2022-11-23T10:47:55;2.95;;;1.30;;
22490;SDS011;11412;50.802;4.350;2022-11-23T10:52:58;4.65;;;1.88;;
22490;SDS011;11412;50.802;4.350;2022-11-23T10:55:29;6.60;;;1.88;;
22490;SDS011;11412;50.802;4.350;2022-11-23T10:57:57;5.57;;;2.08;;
22490;SDS011;11412;50.802;4.350;2022-11-23T11:00:25;6.28;;;2.15;;
22490;SDS011;11412;50.802;4.350;2022-11-23T11:02:56;5.82;;;1.63;;
22490;SDS011;11412;50.802;4.350;2022-11-23T11:05:36;5.43;;;1.67;;
22490;SDS011;11412;50.802;4.350;2022-11-23T11:08:11;5.15;;;1.92;;
22490;SDS011;11412;50.802;4.350;2022-11-23T11:10:57;8.20;;;2.00;;
22490;SDS011;11412;50.802;4.350;2022-11-23T11:18:55;10.27;;;1.55;;
22490;SDS011;11412;50.802;4.350;2022-11-23T11:21:31;7.10;;;1.67;;
22490;SDS011;11412;50.802;4.350;2022-11-23T11:24:02;6.65;;;1.73;;
22490;SDS011;11412;50.802;4.350;2022-11-23T11:26:46;5.50;;;1.35;;
22490;SDS011;11412;50.802;4.350;2022-11-23T11:29:32;4.40;;;1.40;;
22490;SDS011;11412;50.802;4.350;2022-11-23T11:42:47;5.93;;;1.20;;
22490;SDS011;11412;50.802;4.350;2022-11-23T11:47:59;5.10;;;1.02;;
22490;SDS011;11412;50.802;4.350;2022-11-23T11:50:33;5.25;;;1.00;;
22490;SDS011;11412;50.802;4.350;2022-11-23T11:53:21;4.45;;;1.42;;
22490;SDS011;11412;50.802;4.350;2022-11-23T11:59:23;4.97;;;1.00;;
22490;SDS011;11412;50.802;4.350;2022-11-23T12:01:55;5.22;;;1.30;;
22490;SDS011;11412;50.802;4.350;2022-11-23T12:07:48;4.10;;;1.08;;
22490;SDS011;11412;50.802;4.350;2022-11-23T12:10:29;2.00;;;0.80;;
22490;SDS011;11412;50.802;4.350;2022-11-23T12:13:03;2.92;;;0.77;;
22490;SDS011;11412;50.802;4.350;2022-11-23T12:30:00;6.93;;;0.93;;
22490;SDS011;11412;50.802;4.350;2022-11-23T12:32:54;2.85;;;0.93;;
22490;SDS011;11412;50.802;4.350;2022-11-23T12:38:53;2.92;;;1.20;;
22490;SDS011;11412;50.802;4.350;2022-11-23T12:44:04;3.47;;;0.93;;
22490;SDS011;11412;50.802;4.350;2022-11-23T12:46:58;3.28;;;1.15;;
22490;SDS011;11412;50.802;4.350;2022-11-23T12:49:41;3.03;;;1.20;;
22490;SDS011;11412;50.802;4.350;2022-11-23T12:52:34;4.43;;;1.27;;
22490;SDS011;11412;50.802;4.350;2022-11-23T12:58:22;4.63;;;1.25;;
22490;SDS011;11412;50.802;4.350;2022-11-23T13:00:56;3.42;;;1.00;;
22490;SDS011;11412;50.802;4.350;2022-11-23T13:09:37;4.30;;;1.35;;
22490;SDS011;11412;50.802;4.350;2022-11-23T13:12:15;2.33;;;0.80;;
22490;SDS011;11412;50.802;4.350;2022-11-23T13:15:15;5.85;;;1.20;;
22490;SDS011;11412;50.802;4.350;2022-11-23T13:23:07;5.05;;;1.05;;
22490;SDS011;11412;50.802;4.350;2022-11-23T13:25:33;4.25;;;0.98;;
22490;SDS011;11412;50.802;4.350;2022-11-23T13:28:00;1.08;;;0.70;;
22490;SDS011;11412;50.802;4.350;2022-11-23T13:40:38;1.85;;;0.90;;
22490;SDS011;11412;50.802;4.350;2022-11-23T13:45:40;1.13;;;0.80;;
22490;SDS011;11412;50.802;4.350;2022-11-23T13:50:35;2.67;;;1.02;;
22490;SDS011;11412;50.802;4.350;2022-11-23T13:53:03;1.77;;;0.80;;
22490;SDS011;11412;50.802;4.350;2022-11-23T13:56:00;5.07;;;1.00;;
22490;SDS011;11412;50.802;4.350;2022-11-23T13:58:56;3.90;;;0.90;;
22490;SDS011;11412;50.802;4.350;2022-11-23T14:04:34;1.83;;;1.13;;
22490;SDS011;11412;50.802;4.350;2022-11-23T14:07:21;1.65;;;1.10;;
22490;SDS011;11412;50.802;4.350;2022-11-23T14:12:59;3.10;;;0.90;;
22490;SDS011;11412;50.802;4.350;2022-11-23T14:15:32;4.00;;;1.45;;
22490;SDS011;11412;50.802;4.350;2022-11-23T14:20:40;3.25;;;1.25;;
22490;SDS011;11412;50.802;4.350;2022-11-23T14:39:53;1.80;;;1.20;;
22490;SDS011;11412;50.802;4.350;2022-11-23T14:42:29;2.15;;;1.10;;
22490;SDS011;11412;50.802;4.350;2022-11-23T14:45:00;6.35;;;1.20;;
22490;SDS011;11412;50.802;4.350;2022-11-23T14:47:29;7.63;;;4.53;;
22490;SDS011;11412;50.802;4.350;2022-11-23T14:49:55;6.47;;;3.20;;
22490;SDS011;11412;50.802;4.350;2022-11-23T14:52:28;7.75;;;4.45;;
22490;SDS011;11412;50.802;4.350;2022-11-23T14:54:59;2.22;;;2.00;;
22490;SDS011;11412;50.802;4.350;2022-11-23T14:57:49;5.18;;;2.45;;
22490;SDS011;11412;50.802;4.350;2022-11-23T15:00:22;1.70;;;1.23;;
22490;SDS011;11412;50.802;4.350;2022-11-23T15:02:51;3.15;;;1.67;;
22490;SDS011;11412;50.802;4.350;2022-11-23T15:05:20;3.63;;;1.45;;
22490;SDS011;11412;50.802;4.350;2022-11-23T15:10:36;4.82;;;1.67;;
22490;SDS011;11412;50.802;4.350;2022-11-23T15:13:25;4.95;;;1.70;;
22490;SDS011;11412;50.802;4.350;2022-11-23T15:15:53;3.53;;;1.20;;
22490;SDS011;11412;50.802;4.350;2022-11-23T15:18:33;1.95;;;1.10;;
22490;SDS011;11412;50.802;4.350;2022-11-23T15:21:11;1.48;;;1.10;;
22490;SDS011;11412;50.802;4.350;2022-11-23T15:23:45;1.67;;;1.30;;
22490;SDS011;11412;50.802;4.350;2022-11-23T15:26:12;2.65;;;1.20;;
22490;SDS011;11412;50.802;4.350;2022-11-23T15:28:40;4.38;;;1.40;;
22490;SDS011;11412;50.802;4.350;2022-11-23T15:34:10;2.67;;;1.27;;
22490;SDS011;11412;50.802;4.350;2022-11-23T15:36:38;2.60;;;1.00;;
22490;SDS011;11412;50.802;4.350;2022-11-23T15:39:05;1.50;;;1.20;;
22490;SDS011;11412;50.802;4.350;2022-11-23T15:41:37;2.65;;;1.20;;
22490;SDS011;11412;50.802;4.350;2022-11-23T15:44:20;2.78;;;1.58;;
22490;SDS011;11412;50.802;4.350;2022-11-23T15:46:49;4.50;;;1.67;;
22490;SDS011;11412;50.802;4.350;2022-11-23T15:49:17;2.28;;;1.50;;
22490;SDS011;11412;50.802;4.350;2022-11-23T15:51:44;5.18;;;1.52;;
22490;SDS011;11412;50.802;4.350;2022-11-23T15:54:16;4.20;;;1.83;;
22490;SDS011;11412;50.802;4.350;2022-11-23T15:56:43;2.80;;;1.70;;
22490;SDS011;11412;50.802;4.350;2022-11-23T16:01:51;3.15;;;1.70;;
22490;SDS011;11412;50.802;4.350;2022-11-23T16:04:31;5.07;;;1.73;;
22490;SDS011;11412;50.802;4.350;2022-11-23T16:07:22;3.08;;;1.88;;
22490;SDS011;11412;50.802;4.350;2022-11-23T16:12:45;4.30;;;1.70;;
22490;SDS011;11412;50.802;4.350;2022-11-23T16:18:19;4.05;;;2.00;;
22490;SDS011;11412;50.802;4.350;2022-11-23T16:20:56;4.10;;;1.85;;
22490;SDS011;11412;50.802;4.350;2022-11-23T16:23:44;6.45;;;1.98;;
22490;SDS011;11412;50.802;4.350;2022-11-23T16:26:14;5.97;;;2.17;;
22490;SDS011;11412;50.802;4.350;2022-11-23T16:28:47;4.88;;;2.95;;
22490;SDS011;11412;50.802;4.350;2022-11-23T16:33:54;7.43;;;2.45;;
22490;SDS011;11412;50.802;4.350;2022-11-23T16:36:21;8.52;;;2.38;;
22490;SDS011;11412;50.802;4.350;2022-11-23T16:38:47;4.43;;;2.45;;
22490;SDS011;11412;50.802;4.350;2022-11-23T16:41:12;6.63;;;2.72;;
22490;SDS011;11412;50.802;4.350;2022-11-23T16:43:38;6.53;;;3.15;;
22490;SDS011;11412;50.802;4.350;2022-11-23T16:46:04;9.43;;;3.13;;
22490;SDS011;11412;50.802;4.350;2022-11-23T16:48:37;4.70;;;2.70;;
22490;SDS011;11412;50.802;4.350;2022-11-23T16:51:04;8.88;;;3.80;;
22490;SDS011;11412;50.802;4.350;2022-11-23T16:53:31;9.43;;;3.08;;
22490;SDS011;11412;50.802;4.350;2022-11-23T16:55:57;9.20;;;3.40;;
22490;SDS011;11412;50.802;4.350;2022-11-23T16:58:25;10.63;;;3.70;;
22490;SDS011;11412;50.802;4.350;2022-11-23T17:00:58;8.48;;;3.15;;
22490;SDS011;11412;50.802;4.350;2022-11-23T17:03:25;11.23;;;3.38;;
22490;SDS011;11412;50.802;4.350;2022-11-23T17:05:50;7.40;;;3.40;;
22490;SDS011;11412;50.802;4.350;2022-11-23T17:08:16;13.23;;;4.00;;
22490;SDS011;11412;50.802;4.350;2022-11-23T17:10:42;15.43;;;4.03;;
22490;SDS011;11412;50.802;4.350;2022-11-23T17:13:18;12.10;;;4.00;;
22490;SDS011;11412;50.802;4.350;2022-11-23T17:15:49;16.10;;;4.47;;
22490;SDS011;11412;50.802;4.350;2022-11-23T17:18:15;14.45;;;3.70;;
22490;SDS011;11412;50.802;4.350;2022-11-23T17:20:41;15.18;;;4.55;;
22490;SDS011;11412;50.802;4.350;2022-11-23T17:23:07;12.77;;;3.78;;
22490;SDS011;11412;50.802;4.350;2022-11-23T17:25:33;16.33;;;4.20;;
22490;SDS011;11412;50.802;4.350;2022-11-23T17:28:00;16.73;;;4.85;;